TAF Text Data
IDs:
Format:
Raw Decoded Include METAR

Data at: 0657 UTC 23 Oct 2018

KDMA 230558Z AUTO 17004KT 10SM FEW200 20/17 A2993 RMK AO2 SLP098 T02000172 10276 20200 50002 $

TAF KDMA 230600Z 2306/2412 VRB06KT 9999 FEW070 SCT180 QNH2992INS
  BECMG 2314/2315 09009KT 9999 VCSH SCT040 SCT180 QNH2994INS
  BECMG 2318/2319 VRB12G18KT 9999 VCTS BKN040CB QNH2988INS
  TEMPO 2319/2323 VRB20G30KT -TSRAGR
  BECMG 2402/2403 12009KT 9999 NSW SCT040 SCT070 BKN200 QNH2992INS TX27/2321Z TN17/2312Z